Time;durP1;ratioP1;P1;durP2;ratioP2;P2;SDS_P1;SDS_P2;PMS_P1;PMS_P2;Temp;Humidity;BMP_temperature;BMP_pressure;BME280_temperature;BME280_humidity;BME280_pressure;Samples;Min_cycle;Max_cycle;Signal;HPM_P1;HPM_P2
2022/02/08 00:00:18;;;;;;;5.70;2.97;;;128.00;2252.80;;;;;;4864688;29;20045;-61
2022/02/08 00:02:49;;;;;;;11.38;4.78;;;103.30;2227.20;;;;;;4864717;29;20440;-60
2022/02/08 00:05:16;;;;;;;9.80;6.10;;;128.30;2252.80;;;;;;4865287;29;20033;-59
2022/02/08 00:07:46;;;;;;;11.15;6.65;;;128.00;2252.80;;;;;;4866464;29;20025;-60
2022/02/08 00:10:12;;;;;;;8.10;4.53;;;128.10;2252.80;;;;;;4892708;29;20149;-59
2022/02/08 00:12:38;;;;;;;8.43;3.80;;;128.00;2252.80;;;;;;4939714;28;20114;-59
2022/02/08 00:15:04;;;;;;;10.45;3.58;;;103.30;2227.20;;;;;;4971611;28;20484;-60
2022/02/08 00:17:30;;;;;;;9.55;4.78;;;103.30;2227.20;;;;;;4971766;28;20023;-59
2022/02/08 00:19:56;;;;;;;14.15;5.72;;;128.10;2252.80;;;;;;4971437;28;20098;-61
2022/02/08 00:22:21;;;;;;;4.55;2.22;;;128.00;2252.80;;;;;;4971547;28;20023;-60
2022/02/08 00:24:47;;;;;;;8.27;3.17;;;128.00;2252.80;;;;;;4971413;28;20081;-59
2022/02/08 00:27:13;;;;;;;7.35;3.40;;;128.00;2252.80;;;;;;4971890;28;20045;-59
2022/02/08 00:29:38;;;;;;;9.85;2.55;;;128.00;2252.80;;;;;;4971121;28;20035;-60
2022/02/08 00:32:06;;;;;;;6.90;2.45;;;103.30;2227.20;;;;;;4969698;28;20051;-60
2022/02/08 00:34:32;;;;;;;4.28;2.40;;;103.20;2227.20;;;;;;4971381;28;20026;-61
2022/02/08 00:36:57;;;;;;;3.72;2.15;;;103.20;2227.20;;;;;;4971179;28;20097;-60
2022/02/08 00:39:24;;;;;;;4.95;2.40;;;103.20;2227.20;;;;;;4971192;28;20097;-60
2022/02/08 00:41:49;;;;;;;7.95;3.47;;;103.20;2227.20;;;;;;4971536;28;20097;-61
2022/02/08 00:44:24;;;;;;;10.00;3.00;;;103.20;2227.20;;;;;;4971472;28;20035;-61
2022/02/08 00:47:12;;;;;;;6.53;5.38;;;103.30;2227.20;;;;;;4971620;28;20030;-61
2022/02/08 00:49:39;;;;;;;5.82;2.53;;;103.20;2227.20;;;;;;4970612;28;20593;-61
2022/02/08 00:52:10;;;;;;;6.07;2.55;;;103.20;2227.20;;;;;;4971457;28;20122;-63
2022/02/08 00:54:36;;;;;;;5.13;2.58;;;103.20;2227.20;;;;;;4971574;28;20035;-60
2022/02/08 00:57:03;;;;;;;6.93;3.10;;;103.20;2227.20;;;;;;4971827;28;20030;-61
2022/02/08 00:59:28;;;;;;;4.88;2.70;;;103.20;2227.20;;;;;;4971069;28;20059;-60
2022/02/08 01:01:54;;;;;;;5.45;2.58;;;103.20;2227.20;;;;;;4971394;28;20038;-60
2022/02/08 01:04:20;;;;;;;3.70;2.03;;;103.20;2227.20;;;;;;4971297;28;20038;-60
2022/02/08 01:06:47;;;;;;;4.78;2.00;;;103.20;2227.20;;;;;;4971165;28;20034;-61
2022/02/08 01:09:17;;;;;;;4.70;2.00;;;103.30;2227.20;;;;;;4971500;28;20102;-61
2022/02/08 01:11:45;;;;;;;5.03;2.28;;;103.30;2227.20;;;;;;4953912;28;20039;-60
2022/02/08 01:14:11;;;;;;;6.45;2.08;;;103.20;2227.20;;;;;;4971409;28;20042;-61
2022/02/08 01:16:37;;;;;;;6.65;2.58;;;103.30;2227.20;;;;;;4950632;29;20046;-61
2022/02/08 01:19:05;;;;;;;5.35;2.30;;;103.30;2227.20;;;;;;4966986;28;20031;-60
2022/02/08 01:21:31;;;;;;;12.10;3.38;;;103.30;2227.20;;;;;;4971421;28;20508;-61
2022/02/08 01:23:58;;;;;;;7.30;2.53;;;103.20;2227.20;;;;;;4971121;28;20468;-62
2022/02/08 01:26:25;;;;;;;3.88;2.13;;;103.30;2227.20;;;;;;4971213;28;20034;-60
2022/02/08 01:31:18;;;;;;;4.35;2.63;;;103.20;2227.20;;;;;;4970949;28;20050;-61
2022/02/08 01:36:39;;;;;;;11.02;4.40;;;103.10;2227.20;;;;;;4971386;28;20425;-61
2022/02/08 01:39:13;;;;;;;7.03;2.10;;;103.20;2227.20;;;;;;4971250;28;20500;-60
2022/02/08 01:49:37;;;;;;;5.93;1.98;;;103.20;2227.20;;;;;;4971516;28;20548;-61
2022/02/08 01:52:04;;;;;;;6.00;3.22;;;103.30;2227.20;;;;;;4971377;28;20023;-61
2022/02/08 01:54:30;;;;;;;4.57;2.40;;;103.30;2227.20;;;;;;4970519;28;20541;-61
2022/02/08 01:56:56;;;;;;;5.32;2.42;;;128.00;2252.80;;;;;;4970814;28;20110;-61
2022/02/08 01:59:24;;;;;;;9.35;4.70;;;103.30;2227.20;;;;;;4970651;28;20055;-60
2022/02/08 02:01:49;;;;;;;3.95;2.25;;;103.30;2227.20;;;;;;4972672;28;20041;-60
2022/02/08 02:04:15;;;;;;;9.40;3.22;;;103.30;2227.20;;;;;;4974451;28;20106;-63
2022/02/08 02:06:41;;;;;;;7.30;2.63;;;103.30;2227.20;;;;;;4974086;28;20031;-60
2022/02/08 02:09:07;;;;;;;8.85;3.85;;;103.30;2227.20;;;;;;4974067;28;20035;-60
2022/02/08 02:11:33;;;;;;;7.05;2.30;;;103.30;2227.20;;;;;;4974256;28;20034;-61
2022/02/08 02:13:59;;;;;;;6.07;2.70;;;103.20;2227.20;;;;;;4974260;28;20397;-61
2022/02/08 02:16:43;;;;;;;4.75;2.92;;;103.30;2227.20;;;;;;4974279;28;20481;-60
2022/02/08 02:19:09;;;;;;;7.50;3.30;;;103.30;2227.20;;;;;;4974210;28;20389;-61
2022/02/08 02:21:35;;;;;;;9.77;3.88;;;103.30;2227.20;;;;;;4974208;28;20034;-62
2022/02/08 02:24:00;;;;;;;9.63;3.03;;;103.20;2227.20;;;;;;4974215;28;20111;-61
2022/02/08 02:26:26;;;;;;;8.05;3.40;;;103.30;2227.20;;;;;;4973884;28;20083;-62
2022/02/08 02:28:52;;;;;;;9.23;2.90;;;103.30;2227.20;;;;;;4974240;28;20077;-61
2022/02/08 02:31:18;;;;;;;6.88;3.00;;;103.30;2227.20;;;;;;4973994;28;20035;-61
2022/02/08 02:33:44;;;;;;;6.45;2.10;;;103.20;2227.20;;;;;;4973996;28;20038;-61
2022/02/08 02:36:12;;;;;;;4.88;2.90;;;103.20;2227.20;;;;;;4973625;28;20023;-61
2022/02/08 02:38:38;;;;;;;6.00;2.65;;;103.20;2227.20;;;;;;4970711;28;20046;-62
2022/02/08 02:41:04;;;;;;;10.40;3.85;;;103.20;2227.20;;;;;;4971012;28;20393;-62
2022/02/08 02:43:30;;;;;;;10.63;5.47;;;103.10;2227.20;;;;;;4973646;28;20038;-61
2022/02/08 02:45:59;;;;;;;9.63;3.97;;;103.10;2227.20;;;;;;4973729;28;20038;-62
2022/02/08 02:48:25;;;;;;;10.20;3.83;;;103.10;2227.20;;;;;;4973891;28;20085;-61
2022/02/08 02:50:53;;;;;;;5.25;2.42;;;103.10;2227.20;;;;;;4973680;28;20035;-61
2022/02/08 02:53:19;;;;;;;9.10;3.25;;;103.10;2227.20;;;;;;4973596;28;20019;-61
2022/02/08 02:55:45;;;;;;;9.40;3.60;;;103.10;2227.20;;;;;;4973383;28;20037;-62
2022/02/08 02:58:11;;;;;;;10.07;2.88;;;103.00;2227.20;;;;;;4973615;28;20035;-61
2022/02/08 03:00:41;;;;;;;10.57;3.47;;;103.10;2227.20;;;;;;4973051;28;20059;-62
2022/02/08 03:19:01;;;;;;;10.95;3.63;;;103.20;2227.20;;;;;;4973591;28;20531;-61
2022/02/08 03:21:26;;;;;;;9.48;2.63;;;103.20;2227.20;;;;;;4973247;28;20035;-61
2022/02/08 03:23:52;;;;;;;7.85;2.50;;;103.20;2227.20;;;;;;4973205;28;20053;-60
2022/02/08 03:26:18;;;;;;;6.30;2.22;;;103.20;2227.20;;;;;;4972867;28;20030;-62
2022/02/08 03:28:43;;;;;;;5.00;2.28;;;103.10;2227.20;;;;;;4973088;28;20030;-61
2022/02/08 03:31:09;;;;;;;9.52;2.55;;;103.20;2227.20;;;;;;4972816;28;20034;-61
2022/02/08 03:33:35;;;;;;;6.05;3.45;;;103.20;2227.20;;;;;;4972912;28;20620;-61
2022/02/08 03:36:01;;;;;;;8.40;2.60;;;103.20;2227.20;;;;;;4973041;28;20085;-61
2022/02/08 03:38:35;;;;;;;10.63;3.50;;;103.10;2227.20;;;;;;4972624;28;20481;-61
2022/02/08 03:41:03;;;;;;;6.03;2.13;;;103.00;2227.20;;;;;;4972989;28;20049;-61
2022/02/08 03:43:31;;;;;;;10.00;3.22;;;103.00;2227.20;;;;;;4954945;28;20027;-61
2022/02/08 03:46:01;;;;;;;10.52;2.92;;;102.90;2227.20;;;;;;4972406;28;20474;-61
2022/02/08 03:48:29;;;;;;;6.88;2.60;;;102.90;2227.20;;;;;;4972600;28;20030;-61
2022/02/08 03:51:05;;;;;;;6.53;3.03;;;102.90;2227.20;;;;;;4972895;28;20062;-61
2022/02/08 03:53:31;;;;;;;8.23;3.42;;;102.80;2227.20;;;;;;4972733;28;20035;-61
2022/02/08 03:55:57;;;;;;;8.05;3.15;;;102.80;2227.20;;;;;;4972508;28;20039;-61
2022/02/08 03:58:22;;;;;;;12.23;5.07;;;102.80;2227.20;;;;;;4972554;28;20775;-61
2022/02/08 04:03:38;;;;;;;9.90;3.15;;;102.80;2227.20;;;;;;4931935;29;20119;-61
2022/02/08 04:06:04;;;;;;;8.27;4.82;;;102.80;2227.20;;;;;;4931785;29;20490;-61
2022/02/08 04:08:31;;;;;;;6.60;3.20;;;102.90;2227.20;;;;;;4931934;29;20035;-61
2022/02/08 04:10:59;;;;;;;7.20;3.33;;;102.90;2227.20;;;;;;4931580;29;20067;-62
2022/02/08 04:13:33;;;;;;;7.28;3.85;;;102.90;2227.20;;;;;;4931521;29;20027;-62
2022/02/08 04:42:05;;;;;;;7.95;4.40;;;102.80;2227.20;;;;;;4971806;28;20072;-61
2022/02/08 04:47:32;;;;;;;7.43;4.15;;;102.80;2227.20;;;;;;4911916;29;20043;-60
2022/02/08 04:49:58;;;;;;;9.35;5.63;;;102.80;2227.20;;;;;;4912013;29;20479;-61
2022/02/08 04:52:26;;;;;;;13.20;5.13;;;102.70;2227.20;;;;;;4912197;29;20086;-62
2022/02/08 04:55:02;;;;;;;9.73;3.80;;;102.70;2227.20;;;;;;4912167;29;20058;-62
2022/02/08 04:57:37;;;;;;;8.05;3.85;;;102.80;2227.20;;;;;;4912089;29;20024;-61
2022/02/08 05:35:27;;;;;;;12.63;3.97;;;102.70;2227.20;;;;;;4972875;28;20034;-61
2022/02/08 05:48:38;;;;;;;11.77;4.72;;;102.70;2227.20;;;;;;4915395;29;20036;-61
2022/02/08 05:51:06;;;;;;;9.45;4.40;;;102.60;2227.20;;;;;;4899485;29;20036;-61
2022/02/08 05:53:42;;;;;;;10.13;5.30;;;102.70;2227.20;;;;;;4915530;29;20474;-61
2022/02/08 05:56:12;;;;;;;9.82;5.75;;;102.70;2227.20;;;;;;4915047;29;20115;-61
2022/02/08 05:58:43;;;;;;;9.45;3.92;;;102.60;2227.20;;;;;;4914797;29;20125;-60
2022/02/08 06:01:10;;;;;;;13.38;8.52;;;102.60;2227.20;;;;;;4914730;29;20095;-61
2022/02/08 06:03:36;;;;;;;15.30;7.13;;;102.70;2227.20;;;;;;4914879;29;20095;-62
2022/02/08 06:06:01;;;;;;;10.38;4.60;;;102.80;2227.20;;;;;;4915254;29;20056;-61
2022/02/08 06:08:27;;;;;;;10.00;4.82;;;102.80;2227.20;;;;;;4914679;29;20048;-61
2022/02/08 06:11:00;;;;;;;10.45;5.28;;;102.80;2227.20;;;;;;4899220;29;20049;-60
2022/02/08 06:13:26;;;;;;;13.57;5.85;;;102.70;2227.20;;;;;;4914501;29;20035;-61
2022/02/08 06:16:00;;;;;;;10.38;4.00;;;102.80;2227.20;;;;;;4914319;29;20043;-61
2022/02/08 06:18:31;;;;;;;9.32;4.65;;;102.80;2227.20;;;;;;4914464;29;20569;-62
2022/02/08 06:20:57;;;;;;;8.98;4.88;;;102.70;2227.20;;;;;;4914488;29;20044;-61
2022/02/08 06:23:24;;;;;;;42.80;20.50;;;102.70;2227.20;;;;;;4948958;28;20122;-60
2022/02/08 06:25:50;;;;;;;102.00;50.70;;;102.80;2227.20;;;;;;4973973;28;20030;-60
2022/02/08 06:28:17;;;;;;;44.58;22.77;;;102.80;2227.20;;;;;;4972151;28;20258;-60
2022/02/08 06:30:45;;;;;;;25.27;13.65;;;102.80;2227.20;;;;;;4973898;28;20035;-60
2022/02/08 06:33:12;;;;;;;14.80;7.40;;;102.80;2227.20;;;;;;4973866;28;20109;-61
2022/02/08 06:35:38;;;;;;;28.65;14.65;;;102.80;2227.20;;;;;;4973409;28;20027;-60
2022/02/08 06:38:08;;;;;;;35.72;22.60;;;102.90;2227.20;;;;;;4973550;28;20500;-60
2022/02/08 06:40:36;;;;;;;92.75;48.42;;;103.00;2227.20;;;;;;4973914;28;20054;-61
2022/02/08 06:43:03;;;;;;;38.35;19.85;;;103.00;2227.20;;;;;;4974162;28;20058;-62
2022/02/08 06:45:29;;;;;;;127.75;68.68;;;103.00;2227.20;;;;;;4973830;28;20023;-59
2022/02/08 06:47:55;;;;;;;39.13;20.42;;;103.10;2227.20;;;;;;4972910;28;20065;-61
2022/02/08 06:50:21;;;;;;;53.17;32.97;;;103.10;2227.20;;;;;;4974467;28;20054;-61
2022/02/08 06:52:47;;;;;;;20.60;8.45;;;103.10;2227.20;;;;;;4981581;28;20027;-61
2022/02/08 06:55:14;;;;;;;15.85;5.60;;;103.10;2227.20;;;;;;4977754;28;20023;-61
2022/02/08 06:57:59;;;;;;;12.95;5.43;;;103.10;2227.20;;;;;;4973008;28;20031;-61
2022/02/08 07:00:33;;;;;;;9.98;6.03;;;103.10;2227.20;;;;;;4971043;28;20045;-61
2022/02/08 07:03:05;;;;;;;12.73;4.22;;;103.10;2227.20;;;;;;4971144;28;20089;-61
2022/02/08 07:05:31;;;;;;;11.55;4.35;;;103.10;2227.20;;;;;;4983497;28;20033;-60
2022/02/08 07:07:57;;;;;;;10.55;6.70;;;103.20;2227.20;;;;;;4992652;28;20034;-60
2022/02/08 07:10:24;;;;;;;12.10;3.67;;;128.00;2252.80;;;;;;4992768;28;20034;-61
2022/02/08 07:12:51;;;;;;;7.68;4.82;;;103.30;2227.20;;;;;;4992675;28;20037;-60
2022/02/08 07:15:18;;;;;;;19.85;6.82;;;103.30;2227.20;;;;;;4992535;28;20022;-61
2022/02/08 07:17:43;;;;;;;11.15;5.20;;;128.00;2252.80;;;;;;4992698;28;20507;-60
2022/02/08 07:20:11;;;;;;;14.98;7.20;;;128.10;2252.80;;;;;;4974499;28;20133;-60
2022/02/08 07:22:36;;;;;;;8.52;4.63;;;128.20;2252.80;;;;;;4992376;28;20080;-60
2022/02/08 07:25:03;;;;;;;6.25;3.25;;;128.20;2252.80;;;;;;4992755;28;20384;-60
2022/02/08 07:27:29;;;;;;;14.55;6.10;;;128.00;2252.80;;;;;;4992559;28;20065;-61
2022/02/08 07:29:56;;;;;;;19.77;6.13;;;128.10;2252.80;;;;;;4992520;28;20119;-60
2022/02/08 07:32:37;;;;;;;12.27;4.68;;;128.10;2252.80;;;;;;4992408;28;20093;-60
2022/02/08 07:40:27;;;;;;;7.57;4.22;;;128.00;2252.80;;;;;;4992485;28;20069;-60
2022/02/08 07:42:54;;;;;;;8.57;3.97;;;128.00;2252.80;;;;;;4992338;28;20110;-60
2022/02/08 07:45:20;;;;;;;8.45;4.38;;;128.00;2252.80;;;;;;4992112;28;20022;-61
2022/02/08 07:47:46;;;;;;;8.85;4.68;;;128.10;2252.80;;;;;;4991702;28;20037;-61
2022/02/08 07:50:13;;;;;;;9.77;6.57;;;128.10;2252.80;;;;;;4992023;28;20045;-60
2022/02/08 07:52:39;;;;;;;10.02;6.75;;;128.20;2252.80;;;;;;4991860;28;20022;-60
2022/02/08 07:55:05;;;;;;;10.05;4.45;;;128.30;2252.80;;;;;;4991956;28;20460;-60
2022/02/08 07:57:31;;;;;;;14.45;5.63;;;128.30;2252.80;;;;;;4991858;28;20033;-60
2022/02/08 07:59:57;;;;;;;13.00;5.57;;;128.40;2252.80;;;;;;4990708;28;20054;-61
2022/02/08 08:02:22;;;;;;;8.70;4.63;;;128.70;2252.80;;;;;;4991760;28;20436;-60
2022/02/08 08:04:48;;;;;;;12.13;4.88;;;128.60;2252.80;;;;;;4991459;28;20154;-60
2022/02/08 08:07:14;;;;;;;15.52;7.75;;;128.40;2252.80;;;;;;4991743;28;20054;-60
2022/02/08 08:09:41;;;;;;;14.38;7.68;;;128.60;2252.80;;;;;;4992160;28;20077;-61
2022/02/08 08:12:11;;;;;;;11.85;5.07;;;128.60;2252.80;;;;;;4993612;28;20488;-60
2022/02/08 08:14:37;;;;;;;11.20;6.63;;;128.80;2252.80;;;;;;4993173;28;20535;-61
2022/02/08 08:17:36;;;;;;;18.90;5.38;;;128.70;2252.80;;;;;;4993197;28;20030;-65
2022/02/08 08:19:50;;;;;;;15.43;9.15;;;128.80;2252.80;;;;;;4993378;28;20118;-61
2022/02/08 08:22:19;;;;;;;13.95;6.20;;;153.60;2252.80;;;;;;4993137;28;20105;-62
2022/02/08 08:24:45;;;;;;;28.05;15.82;;;128.90;2252.80;;;;;;4993789;28;20033;-60
2022/02/08 08:27:12;;;;;;;48.15;26.63;;;128.90;2252.80;;;;;;4993049;28;20030;-61
2022/02/08 08:29:38;;;;;;;26.35;12.13;;;128.90;2252.80;;;;;;4993153;28;20413;-60
2022/02/08 08:32:05;;;;;;;45.58;21.90;;;153.60;2252.80;;;;;;4993484;28;20031;-65
2022/02/08 08:34:32;;;;;;;92.82;45.95;;;153.80;2252.80;;;;;;4994312;28;20026;-64
2022/02/08 08:36:57;;;;;;;21.08;10.27;;;153.90;2252.80;;;;;;4994070;28;20033;-61
2022/02/08 08:39:28;;;;;;;22.17;13.32;;;153.80;2252.80;;;;;;4993850;28;20042;-62
2022/02/08 08:50:10;;;;;;;24.23;12.88;;;153.80;2252.80;;;;;;4994343;28;20024;-62
2022/02/08 08:52:41;;;;;;;22.17;7.75;;;153.80;2252.80;;;;;;4994217;28;20416;-65
2022/02/08 08:55:08;;;;;;;14.13;8.57;;;153.90;2252.80;;;;;;4994452;28;20109;-62
2022/02/08 08:57:34;;;;;;;12.77;6.35;;;154.00;2252.80;;;;;;4994384;28;20038;-61
2022/02/08 09:00:00;;;;;;;18.42;10.82;;;154.00;2252.80;;;;;;4990376;28;20054;-60
2022/02/08 09:02:26;;;;;;;15.45;7.38;;;154.00;2252.80;;;;;;4990782;28;20473;-61
2022/02/08 09:04:54;;;;;;;19.25;11.40;;;154.20;2252.80;;;;;;4973066;28;20036;-62
2022/02/08 09:07:20;;;;;;;29.42;13.95;;;154.20;2252.80;;;;;;4990547;28;20481;-61
2022/02/08 09:09:51;;;;;;;16.50;5.93;;;154.40;2252.80;;;;;;4990351;28;20102;-61
2022/02/08 09:15:04;;;;;;;15.20;5.45;;;154.30;2252.80;;;;;;4991016;28;20033;-60
2022/02/08 09:25:51;;;;;;;15.70;9.40;;;179.30;2252.80;;;;;;4930896;29;20095;-61
2022/02/08 09:30:49;;;;;;;26.52;8.73;;;179.50;2227.20;;;;;;4930714;29;20501;-61
2022/02/08 09:33:15;;;;;;;12.37;7.53;;;179.70;2176.00;;;;;;4930506;29;20111;-61
2022/02/08 09:35:42;;;;;;;15.07;10.10;;;179.90;2150.40;;;;;;4930501;29;20118;-62
2022/02/08 09:38:08;;;;;;;19.00;7.40;;;180.00;2124.80;;;;;;4930533;29;20024;-61
2022/02/08 09:40:34;;;;;;;11.43;5.03;;;204.80;2073.60;;;;;;4930595;29;20039;-61
2022/02/08 09:43:03;;;;;;;12.90;8.48;;;204.90;2022.40;;;;;;4930536;29;20478;-60
2022/02/08 09:45:32;;;;;;;16.90;9.20;;;205.10;1996.80;;;;;;4930535;29;20032;-60
2022/02/08 09:48:02;;;;;;;22.77;10.77;;;180.00;1996.80;;;;;;4930365;29;20030;-61
2022/02/08 09:50:32;;;;;;;10.07;5.40;;;205.00;2022.40;;;;;;4930339;29;20031;-61
2022/02/08 09:53:01;;;;;;;18.58;7.28;;;204.90;1996.80;;;;;;4930369;29;20110;-60
2022/02/08 09:55:37;;;;;;;19.98;10.55;;;205.00;1996.80;;;;;;4930332;29;20032;-60
2022/02/08 09:58:04;;;;;;;25.48;11.00;;;204.80;1996.80;;;;;;4930635;29;20090;-60
2022/02/08 10:00:33;;;;;;;25.67;10.55;;;204.80;1996.80;;;;;;4930182;29;20043;-60
2022/02/08 10:03:08;;;;;;;20.42;11.02;;;204.90;1996.80;;;;;;4972642;28;20114;-61
2022/02/08 10:05:46;;;;;;;19.75;7.90;;;205.10;1971.20;;;;;;4968348;28;20027;-61
2022/02/08 10:08:14;;;;;;;20.27;11.35;;;205.20;1945.60;;;;;;4970397;28;20030;-60
2022/02/08 10:10:40;;;;;;;14.73;8.73;;;205.20;1945.60;;;;;;4970176;28;20027;-61
2022/02/08 10:24:05;;;;;;;17.70;10.93;;;204.80;1971.20;;;;;;4972882;28;20034;-60
2022/02/08 10:37:42;;;;;;;18.83;8.10;;;205.30;1894.40;;;;;;4973389;28;20085;-61
2022/02/08 10:40:09;;;;;;;18.27;10.25;;;205.10;1868.80;;;;;;4973276;28;20043;-60
2022/02/08 10:42:37;;;;;;;16.10;8.85;;;205.20;1868.80;;;;;;4973411;28;20026;-62
2022/02/08 10:45:16;;;;;;;17.35;10.63;;;205.20;1868.80;;;;;;4973780;28;20371;-61
2022/02/08 10:47:45;;;;;;;17.35;10.23;;;205.30;1868.80;;;;;;4973461;28;20035;-61
2022/02/08 10:50:11;;;;;;;15.15;8.23;;;205.10;1894.40;;;;;;4973549;28;20030;-60
2022/02/08 10:52:40;;;;;;;18.13;10.05;;;205.00;1868.80;;;;;;4973480;28;20114;-61
2022/02/08 10:55:26;;;;;;;18.45;8.30;;;204.90;1868.80;;;;;;4973182;28;20031;-62
2022/02/08 11:00:43;;;;;;;22.45;10.52;;;205.00;1868.80;;;;;;4972556;28;20050;-60
2022/02/08 11:03:16;;;;;;;14.23;7.72;;;205.10;1894.40;;;;;;4972864;28;20493;-60
2022/02/08 11:06:19;;;;;;;14.68;8.88;;;205.20;1894.40;;;;;;4973587;28;20043;-62
2022/02/08 11:27:54;;;;;;;27.55;11.10;;;205.50;1843.20;;;;;;4894492;29;20072;-61
2022/02/08 11:30:49;;;;;;;20.45;10.55;;;205.50;1843.20;;;;;;4894439;29;20037;-61
2022/02/08 11:33:37;;;;;;;21.67;10.40;;;205.70;1843.20;;;;;;4892622;29;20051;-60
2022/02/08 11:47:11;;;;;;;14.15;7.65;;;205.70;1792.00;;;;;;4873468;29;20048;-61
2022/02/08 11:57:53;;;;;;;15.32;6.90;;;205.40;1817.60;;;;;;4873761;29;20057;-61
2022/02/08 12:00:33;;;;;;;17.33;10.70;;;205.30;1843.20;;;;;;4872611;29;20414;-61
2022/02/08 12:06:06;;;;;;;8.95;5.95;;;205.20;1868.80;;;;;;4873603;29;20045;-61
2022/02/08 12:08:32;;;;;;;13.35;7.60;;;205.20;1868.80;;;;;;4873716;29;20037;-61
2022/02/08 12:33:27;;;;;;;75.35;36.42;;;205.60;1817.60;;;;;;4837992;29;20034;-61
2022/02/08 12:36:11;;;;;;;47.67;22.50;;;230.50;1843.20;;;;;;4837951;29;20048;-61
2022/02/08 12:58:50;;;;;;;30.20;14.60;;;205.50;1868.80;;;;;;4933502;29;20386;-61
2022/02/08 13:01:22;;;;;;;26.30;15.85;;;205.40;1868.80;;;;;;4944935;28;20565;-61
2022/02/08 13:04:05;;;;;;;27.33;18.45;;;205.50;1894.40;;;;;;4951818;29;20035;-61
2022/02/08 14:12:25;;;;;;;22.05;10.30;;;205.40;1996.80;;;;;;4955140;29;20023;-61
2022/02/08 14:20:30;;;;;;;33.40;17.65;;;205.50;1996.80;;;;;;4954825;29;20031;-59
2022/02/08 14:25:31;;;;;;;11.43;7.80;;;205.50;2022.40;;;;;;4954960;29;20034;-60
2022/02/08 14:31:06;;;;;;;21.83;13.40;;;205.50;2022.40;;;;;;4912302;29;20505;-59
2022/02/08 15:09:05;;;;;;;14.35;6.85;;;180.10;2227.20;;;;;;4973012;28;20034;-59
2022/02/08 15:11:46;;;;;;;12.25;5.93;;;180.00;2201.60;;;;;;4973860;28;20035;-60
2022/02/08 15:14:12;;;;;;;9.90;4.82;;;180.00;2227.20;;;;;;4973520;28;20023;-59
2022/02/08 15:16:38;;;;;;;11.43;6.00;;;179.90;2227.20;;;;;;4973368;28;20090;-59
2022/02/08 15:19:04;;;;;;;18.95;9.25;;;179.70;2227.20;;;;;;4973416;28;20030;-61
2022/02/08 15:21:33;;;;;;;10.68;5.57;;;179.90;2201.60;;;;;;4973151;28;20119;-59
2022/02/08 15:24:01;;;;;;;22.75;12.75;;;179.90;2201.60;;;;;;4973080;28;20461;-59
2022/02/08 15:26:28;;;;;;;20.05;10.38;;;179.80;2227.20;;;;;;4973249;28;20039;-59
2022/02/08 15:28:55;;;;;;;16.50;6.90;;;179.80;2201.60;;;;;;4973198;28;20031;-60
2022/02/08 15:31:21;;;;;;;13.98;7.50;;;179.80;2201.60;;;;;;4973006;28;20397;-59
2022/02/08 15:33:47;;;;;;;10.25;6.07;;;179.70;2227.20;;;;;;4972929;28;20026;-59
2022/02/08 15:36:16;;;;;;;13.93;8.25;;;179.60;2227.20;;;;;;4972971;28;20030;-59
2022/02/08 15:38:53;;;;;;;10.52;6.05;;;179.50;2227.20;;;;;;4972985;28;20079;-59
2022/02/08 15:41:19;;;;;;;9.38;5.82;;;179.60;2227.20;;;;;;4972716;28;20110;-59
2022/02/08 15:43:45;;;;;;;7.53;4.50;;;179.50;2201.60;;;;;;4971738;28;20529;-59
2022/02/08 15:46:33;;;;;;;8.85;5.13;;;179.50;2227.20;;;;;;4971709;28;20026;-59
2022/02/08 15:48:56;;;;;;;11.63;4.30;;;179.40;2252.80;;;;;;4968256;28;20035;-60
2022/02/08 15:51:31;;;;;;;14.20;5.13;;;179.30;2227.20;;;;;;4970134;28;20033;-60
2022/02/08 15:56:53;;;;;;;9.32;4.85;;;179.20;2252.80;;;;;;4970820;28;20046;-59
2022/02/08 16:07:11;;;;;;;15.88;9.75;;;154.40;2252.80;;;;;;4969851;28;20461;-62
2022/02/08 16:25:03;;;;;;;19.25;14.35;;;154.00;2252.80;;;;;;4929678;29;20043;-60
2022/02/08 16:27:42;;;;;;;20.08;13.05;;;153.90;2252.80;;;;;;4929172;29;20035;-60
2022/02/08 16:59:26;;;;;;;17.88;15.98;;;153.80;2252.80;;;;;;4928921;29;20083;-56
2022/02/08 17:01:52;;;;;;;17.90;13.85;;;153.80;2252.80;;;;;;4952462;28;20050;-58
2022/02/08 17:04:19;;;;;;;19.02;13.02;;;153.80;2252.80;;;;;;4971497;28;20441;-58
2022/02/08 17:06:45;;;;;;;28.08;18.40;;;153.80;2252.80;;;;;;4971864;28;20392;-59
2022/02/08 17:09:15;;;;;;;57.13;36.78;;;153.80;2252.80;;;;;;4971269;28;20026;-57
2022/02/08 17:11:47;;;;;;;23.20;13.20;;;153.80;2252.80;;;;;;4971562;28;20027;-56
2022/02/08 17:46:38;;;;;;;92.53;55.65;;;153.70;2252.80;;;;;;4913756;29;20119;-57
2022/02/08 17:49:04;;;;;;;36.58;25.42;;;153.60;2252.80;;;;;;4913630;29;20195;-57
2022/02/08 17:51:30;;;;;;;22.50;13.98;;;153.60;2252.80;;;;;;4913497;29;20157;-56
2022/02/08 17:53:56;;;;;;;71.00;39.58;;;153.60;2252.80;;;;;;4913237;29;20024;-57
2022/02/08 17:56:22;;;;;;;32.47;18.75;;;153.60;2252.80;;;;;;4952166;28;20069;-57
2022/02/08 17:58:49;;;;;;;17.85;11.88;;;153.60;2252.80;;;;;;4972774;28;20142;-56
2022/02/08 18:01:15;;;;;;;38.20;27.02;;;153.60;2252.80;;;;;;4972461;28;20055;-61
2022/02/08 18:03:41;;;;;;;64.38;37.20;;;153.60;2252.80;;;;;;4973055;28;20023;-57
2022/02/08 18:06:07;;;;;;;38.42;23.60;;;153.60;2252.80;;;;;;4972960;28;20478;-57
2022/02/08 18:08:34;;;;;;;30.95;18.10;;;153.60;2252.80;;;;;;4972621;28;20143;-56
2022/02/08 18:10:59;;;;;;;51.83;30.00;;;153.60;2252.80;;;;;;4972463;28;20023;-58
2022/02/08 18:13:29;;;;;;;41.97;22.75;;;153.70;2252.80;;;;;;4972609;28;20100;-60
2022/02/08 18:15:54;;;;;;;62.05;32.95;;;153.60;2252.80;;;;;;4972440;28;20115;-57
2022/02/08 18:18:27;;;;;;;40.25;22.58;;;153.70;2252.80;;;;;;4972326;28;20499;-57
2022/02/08 18:21:03;;;;;;;39.97;22.77;;;153.60;2252.80;;;;;;4972189;28;20389;-58
2022/02/08 19:09:45;;;;;;;48.78;23.65;;;128.70;2252.80;;;;;;4912044;29;20040;-57
2022/02/08 19:12:16;;;;;;;31.73;22.80;;;128.70;2252.80;;;;;;4909957;29;20098;-57
2022/02/08 19:15:14;;;;;;;56.10;30.17;;;128.70;2252.80;;;;;;4912008;29;20032;-57
2022/02/08 19:17:53;;;;;;;255.73;122.68;;;128.60;2252.80;;;;;;4912006;29;20158;-59
2022/02/08 19:20:30;;;;;;;56.72;26.65;;;128.70;2252.80;;;;;;4895878;29;20702;-58
2022/02/08 19:22:56;;;;;;;41.60;26.38;;;128.70;2252.80;;;;;;4911795;29;20032;-57
2022/02/08 19:25:23;;;;;;;32.65;18.95;;;128.60;2252.80;;;;;;4911832;29;20410;-57
2022/02/08 19:27:50;;;;;;;85.18;59.72;;;128.70;2252.80;;;;;;4911671;29;20036;-58
2022/02/08 19:30:16;;;;;;;92.45;61.63;;;128.90;2252.80;;;;;;4911501;29;20040;-58
2022/02/08 19:32:42;;;;;;;52.83;28.92;;;153.60;2252.80;;;;;;4911915;29;20046;-57
2022/02/08 19:35:11;;;;;;;17.33;8.02;;;153.70;2252.80;;;;;;4931210;28;20069;-57
2022/02/08 19:37:38;;;;;;;19.80;15.35;;;153.80;2252.80;;;;;;4971328;28;20741;-57
2022/02/08 19:40:06;;;;;;;20.75;14.18;;;153.80;2252.80;;;;;;4971409;28;20097;-57
2022/02/08 19:42:34;;;;;;;30.20;16.92;;;153.80;2252.80;;;;;;4971574;28;20031;-58
2022/02/08 19:45:09;;;;;;;19.15;13.18;;;153.80;2252.80;;;;;;4971354;28;20157;-57
2022/02/08 19:47:34;;;;;;;17.63;10.73;;;153.80;2252.80;;;;;;4971350;28;20440;-56
2022/02/08 19:50:00;;;;;;;14.55;7.07;;;153.90;2252.80;;;;;;4971047;28;20114;-57
2022/02/08 19:52:28;;;;;;;49.03;28.58;;;154.00;2252.80;;;;;;4970671;28;20075;-57
2022/02/08 19:55:17;;;;;;;66.07;27.05;;;154.00;2252.80;;;;;;4971119;28;20504;-58
2022/02/08 19:57:43;;;;;;;86.25;40.60;;;154.10;2252.80;;;;;;4970907;28;20162;-58
2022/02/08 20:00:15;;;;;;;69.78;32.53;;;154.10;2252.80;;;;;;4970607;28;20124;-59
2022/02/08 20:02:46;;;;;;;31.35;14.73;;;154.20;2252.80;;;;;;4971069;28;20065;-59
2022/02/08 20:05:16;;;;;;;22.35;12.90;;;154.30;2252.80;;;;;;4971017;28;20078;-58
2022/02/08 20:07:43;;;;;;;14.40;9.75;;;154.20;2252.80;;;;;;4971058;28;20035;-60
2022/02/08 20:10:09;;;;;;;17.02;9.20;;;154.30;2227.20;;;;;;4970822;28;20023;-58
2022/02/08 20:12:35;;;;;;;34.15;17.15;;;154.30;2252.80;;;;;;4970937;28;20173;-57
2022/02/08 20:15:06;;;;;;;31.25;16.60;;;154.40;2227.20;;;;;;4970799;28;20022;-56
2022/02/08 20:17:32;;;;;;;20.08;9.60;;;154.50;2227.20;;;;;;4970728;28;20019;-59
2022/02/08 20:20:03;;;;;;;20.17;8.23;;;154.50;2150.40;;;;;;4970195;28;20500;-58
2022/02/08 20:22:29;;;;;;;16.95;9.93;;;179.30;2176.00;;;;;;4970707;28;20039;-56
2022/02/08 20:24:56;;;;;;;184.93;126.18;;;179.40;2176.00;;;;;;4970719;28;20054;-56